sensor_id;sensor_type;location;lat;lon;timestamp;P1;durP1;ratioP1;P2;durP2;ratioP2
6785;SDS011;3430;51.192;6.048;2024-03-06T00:01:09;7.17;;;6.30;;
6785;SDS011;3430;51.192;6.048;2024-03-06T00:03:34;6.57;;;5.73;;
6785;SDS011;3430;51.192;6.048;2024-03-06T00:06:00;6.30;;;5.70;;
6785;SDS011;3430;51.192;6.048;2024-03-06T00:08:25;7.13;;;6.20;;
6785;SDS011;3430;51.192;6.048;2024-03-06T00:10:50;7.77;;;6.07;;
6785;SDS011;3430;51.192;6.048;2024-03-06T00:13:15;6.97;;;6.13;;
6785;SDS011;3430;51.192;6.048;2024-03-06T00:15:41;6.30;;;5.67;;
6785;SDS011;3430;51.192;6.048;2024-03-06T00:18:06;6.80;;;5.93;;
6785;SDS011;3430;51.192;6.048;2024-03-06T00:20:34;5.57;;;4.90;;
6785;SDS011;3430;51.192;6.048;2024-03-06T00:22:59;7.43;;;6.00;;
6785;SDS011;3430;51.192;6.048;2024-03-06T00:25:25;9.07;;;5.47;;
6785;SDS011;3430;51.192;6.048;2024-03-06T00:27:50;6.47;;;5.80;;
6785;SDS011;3430;51.192;6.048;2024-03-06T00:30:16;6.90;;;6.10;;
6785;SDS011;3430;51.192;6.048;2024-03-06T00:32:41;6.30;;;5.47;;
6785;SDS011;3430;51.192;6.048;2024-03-06T00:35:06;7.83;;;6.30;;
6785;SDS011;3430;51.192;6.048;2024-03-06T00:37:32;8.03;;;5.93;;
6785;SDS011;3430;51.192;6.048;2024-03-06T00:39:57;7.37;;;6.10;;
6785;SDS011;3430;51.192;6.048;2024-03-06T00:42:23;6.67;;;5.67;;
6785;SDS011;3430;51.192;6.048;2024-03-06T00:44:48;7.60;;;6.63;;
6785;SDS011;3430;51.192;6.048;2024-03-06T00:47:13;8.63;;;6.23;;
6785;SDS011;3430;51.192;6.048;2024-03-06T00:49:38;7.07;;;5.77;;
6785;SDS011;3430;51.192;6.048;2024-03-06T00:52:04;6.83;;;6.07;;
6785;SDS011;3430;51.192;6.048;2024-03-06T00:54:29;8.70;;;5.60;;
6785;SDS011;3430;51.192;6.048;2024-03-06T00:56:55;7.80;;;5.67;;
6785;SDS011;3430;51.192;6.048;2024-03-06T00:59:22;6.97;;;6.00;;
6785;SDS011;3430;51.192;6.048;2024-03-06T01:01:47;7.30;;;5.67;;
6785;SDS011;3430;51.192;6.048;2024-03-06T01:04:13;7.37;;;5.70;;
6785;SDS011;3430;51.192;6.048;2024-03-06T01:06:38;8.00;;;6.53;;
6785;SDS011;3430;51.192;6.048;2024-03-06T01:09:03;7.37;;;5.53;;
6785;SDS011;3430;51.192;6.048;2024-03-06T01:11:29;8.47;;;5.57;;
6785;SDS011;3430;51.192;6.048;2024-03-06T01:13:54;6.73;;;5.73;;
6785;SDS011;3430;51.192;6.048;2024-03-06T01:16:20;7.87;;;6.20;;
6785;SDS011;3430;51.192;6.048;2024-03-06T01:18:45;6.97;;;5.80;;
6785;SDS011;3430;51.192;6.048;2024-03-06T01:21:10;7.67;;;5.87;;
6785;SDS011;3430;51.192;6.048;2024-03-06T01:23:36;8.20;;;6.63;;
6785;SDS011;3430;51.192;6.048;2024-03-06T01:26:01;7.57;;;5.97;;
6785;SDS011;3430;51.192;6.048;2024-03-06T01:28:26;6.93;;;5.73;;
6785;SDS011;3430;51.192;6.048;2024-03-06T01:30:52;8.50;;;6.30;;
6785;SDS011;3430;51.192;6.048;2024-03-06T01:33:17;7.07;;;6.17;;
6785;SDS011;3430;51.192;6.048;2024-03-06T01:35:42;7.50;;;5.73;;
6785;SDS011;3430;51.192;6.048;2024-03-06T01:38:08;8.97;;;5.73;;
6785;SDS011;3430;51.192;6.048;2024-03-06T01:40:35;6.70;;;6.00;;
6785;SDS011;3430;51.192;6.048;2024-03-06T01:43:00;7.13;;;6.00;;
6785;SDS011;3430;51.192;6.048;2024-03-06T01:45:26;9.03;;;5.83;;
6785;SDS011;3430;51.192;6.048;2024-03-06T01:47:51;7.77;;;6.33;;
6785;SDS011;3430;51.192;6.048;2024-03-06T01:50:17;7.87;;;6.60;;
6785;SDS011;3430;51.192;6.048;2024-03-06T01:52:42;7.27;;;5.97;;
6785;SDS011;3430;51.192;6.048;2024-03-06T01:55:09;9.60;;;6.70;;
6785;SDS011;3430;51.192;6.048;2024-03-06T01:57:34;6.17;;;5.47;;
6785;SDS011;3430;51.192;6.048;2024-03-06T02:00:00;8.17;;;6.27;;
6785;SDS011;3430;51.192;6.048;2024-03-06T02:02:26;7.07;;;5.97;;
6785;SDS011;3430;51.192;6.048;2024-03-06T02:04:53;6.60;;;5.70;;
6785;SDS011;3430;51.192;6.048;2024-03-06T02:07:18;7.40;;;6.00;;
6785;SDS011;3430;51.192;6.048;2024-03-06T02:09:44;6.80;;;6.10;;
6785;SDS011;3430;51.192;6.048;2024-03-06T02:12:09;6.77;;;6.07;;
6785;SDS011;3430;51.192;6.048;2024-03-06T02:14:37;6.80;;;5.97;;
6785;SDS011;3430;51.192;6.048;2024-03-06T02:17:03;9.10;;;6.10;;
6785;SDS011;3430;51.192;6.048;2024-03-06T02:19:41;7.60;;;6.27;;
6785;SDS011;3430;51.192;6.048;2024-03-06T02:22:07;7.93;;;6.10;;
6785;SDS011;3430;51.192;6.048;2024-03-06T02:24:32;7.00;;;6.00;;
6785;SDS011;3430;51.192;6.048;2024-03-06T02:26:58;7.60;;;6.20;;
6785;SDS011;3430;51.192;6.048;2024-03-06T02:29:23;7.07;;;6.10;;
6785;SDS011;3430;51.192;6.048;2024-03-06T02:31:49;7.07;;;6.03;;
6785;SDS011;3430;51.192;6.048;2024-03-06T02:34:14;6.53;;;5.40;;
6785;SDS011;3430;51.192;6.048;2024-03-06T02:36:39;8.03;;;5.40;;
6785;SDS011;3430;51.192;6.048;2024-03-06T02:39:05;6.27;;;5.67;;
6785;SDS011;3430;51.192;6.048;2024-03-06T02:41:34;7.07;;;6.37;;
6785;SDS011;3430;51.192;6.048;2024-03-06T02:43:59;6.77;;;6.10;;
6785;SDS011;3430;51.192;6.048;2024-03-06T02:46:24;7.63;;;6.80;;
6785;SDS011;3430;51.192;6.048;2024-03-06T02:48:50;7.17;;;6.00;;
6785;SDS011;3430;51.192;6.048;2024-03-06T02:51:19;7.17;;;5.93;;
6785;SDS011;3430;51.192;6.048;2024-03-06T02:53:45;6.60;;;5.83;;
6785;SDS011;3430;51.192;6.048;2024-03-06T02:56:15;6.60;;;5.87;;
6785;SDS011;3430;51.192;6.048;2024-03-06T02:58:40;6.57;;;5.83;;
6785;SDS011;3430;51.192;6.048;2024-03-06T03:01:05;6.60;;;5.90;;
6785;SDS011;3430;51.192;6.048;2024-03-06T03:03:31;7.93;;;6.13;;
6785;SDS011;3430;51.192;6.048;2024-03-06T03:05:56;7.53;;;5.77;;
6785;SDS011;3430;51.192;6.048;2024-03-06T03:08:22;8.67;;;7.10;;
6785;SDS011;3430;51.192;6.048;2024-03-06T03:10:47;6.70;;;5.70;;
6785;SDS011;3430;51.192;6.048;2024-03-06T03:13:13;8.13;;;5.93;;
6785;SDS011;3430;51.192;6.048;2024-03-06T03:15:38;7.90;;;5.40;;
6785;SDS011;3430;51.192;6.048;2024-03-06T03:18:05;8.07;;;5.70;;
6785;SDS011;3430;51.192;6.048;2024-03-06T03:20:31;7.33;;;6.43;;
6785;SDS011;3430;51.192;6.048;2024-03-06T03:22:56;8.80;;;5.80;;
6785;SDS011;3430;51.192;6.048;2024-03-06T03:25:21;9.60;;;5.43;;
6785;SDS011;3430;51.192;6.048;2024-03-06T03:27:47;9.73;;;6.17;;
6785;SDS011;3430;51.192;6.048;2024-03-06T03:30:12;6.67;;;5.60;;
6785;SDS011;3430;51.192;6.048;2024-03-06T03:32:38;6.90;;;5.83;;
6785;SDS011;3430;51.192;6.048;2024-03-06T03:35:04;7.40;;;6.10;;
6785;SDS011;3430;51.192;6.048;2024-03-06T03:37:30;6.27;;;5.67;;
6785;SDS011;3430;51.192;6.048;2024-03-06T03:39:55;7.03;;;6.00;;
6785;SDS011;3430;51.192;6.048;2024-03-06T03:42:21;6.87;;;5.43;;
6785;SDS011;3430;51.192;6.048;2024-03-06T03:44:46;7.20;;;5.63;;
6785;SDS011;3430;51.192;6.048;2024-03-06T03:47:11;5.67;;;5.10;;
6785;SDS011;3430;51.192;6.048;2024-03-06T03:49:37;6.90;;;5.27;;
6785;SDS011;3430;51.192;6.048;2024-03-06T03:52:03;6.57;;;5.90;;
6785;SDS011;3430;51.192;6.048;2024-03-06T03:54:29;7.80;;;5.23;;
6785;SDS011;3430;51.192;6.048;2024-03-06T03:56:55;7.77;;;6.00;;
6785;SDS011;3430;51.192;6.048;2024-03-06T03:59:20;7.00;;;5.93;;
6785;SDS011;3430;51.192;6.048;2024-03-06T04:01:45;6.37;;;5.40;;
6785;SDS011;3430;51.192;6.048;2024-03-06T04:04:12;6.47;;;5.87;;
6785;SDS011;3430;51.192;6.048;2024-03-06T04:06:37;6.07;;;5.43;;
6785;SDS011;3430;51.192;6.048;2024-03-06T04:09:02;8.33;;;5.40;;
6785;SDS011;3430;51.192;6.048;2024-03-06T04:11:29;6.67;;;5.97;;
6785;SDS011;3430;51.192;6.048;2024-03-06T04:13:54;7.60;;;5.37;;
6785;SDS011;3430;51.192;6.048;2024-03-06T04:16:20;7.10;;;5.80;;
6785;SDS011;3430;51.192;6.048;2024-03-06T04:18:46;6.43;;;5.73;;
6785;SDS011;3430;51.192;6.048;2024-03-06T04:21:11;7.23;;;5.77;;
6785;SDS011;3430;51.192;6.048;2024-03-06T04:23:36;7.30;;;6.57;;
6785;SDS011;3430;51.192;6.048;2024-03-06T04:26:02;6.27;;;5.63;;
6785;SDS011;3430;51.192;6.048;2024-03-06T04:28:28;6.33;;;5.67;;
6785;SDS011;3430;51.192;6.048;2024-03-06T04:30:53;6.50;;;5.30;;
6785;SDS011;3430;51.192;6.048;2024-03-06T04:33:19;6.43;;;5.23;;
6785;SDS011;3430;51.192;6.048;2024-03-06T04:35:45;6.80;;;5.63;;
6785;SDS011;3430;51.192;6.048;2024-03-06T04:38:10;8.50;;;5.97;;
6785;SDS011;3430;51.192;6.048;2024-03-06T04:40:39;5.60;;;5.10;;
6785;SDS011;3430;51.192;6.048;2024-03-06T04:43:04;6.07;;;5.47;;
6785;SDS011;3430;51.192;6.048;2024-03-06T04:45:30;7.13;;;5.80;;
6785;SDS011;3430;51.192;6.048;2024-03-06T04:47:55;8.20;;;6.03;;
6785;SDS011;3430;51.192;6.048;2024-03-06T04:50:21;6.53;;;5.73;;
6785;SDS011;3430;51.192;6.048;2024-03-06T04:52:46;7.23;;;5.63;;
6785;SDS011;3430;51.192;6.048;2024-03-06T04:55:11;7.47;;;5.00;;
6785;SDS011;3430;51.192;6.048;2024-03-06T04:57:38;7.40;;;5.47;;
6785;SDS011;3430;51.192;6.048;2024-03-06T05:00:03;11.10;;;6.00;;
6785;SDS011;3430;51.192;6.048;2024-03-06T05:02:33;7.00;;;5.17;;
6785;SDS011;3430;51.192;6.048;2024-03-06T05:05:02;6.93;;;4.83;;
6785;SDS011;3430;51.192;6.048;2024-03-06T05:07:28;7.20;;;5.10;;
6785;SDS011;3430;51.192;6.048;2024-03-06T05:09:54;8.00;;;5.13;;
6785;SDS011;3430;51.192;6.048;2024-03-06T05:12:19;8.23;;;5.43;;
6785;SDS011;3430;51.192;6.048;2024-03-06T05:14:45;6.37;;;5.17;;
6785;SDS011;3430;51.192;6.048;2024-03-06T05:17:10;6.10;;;5.30;;
6785;SDS011;3430;51.192;6.048;2024-03-06T05:19:36;6.77;;;5.80;;
6785;SDS011;3430;51.192;6.048;2024-03-06T05:22:02;6.83;;;5.90;;
6785;SDS011;3430;51.192;6.048;2024-03-06T05:24:28;6.83;;;5.33;;
6785;SDS011;3430;51.192;6.048;2024-03-06T05:26:54;5.93;;;5.30;;
6785;SDS011;3430;51.192;6.048;2024-03-06T05:29:19;5.67;;;5.07;;
6785;SDS011;3430;51.192;6.048;2024-03-06T05:31:45;5.87;;;5.10;;
6785;SDS011;3430;51.192;6.048;2024-03-06T05:34:19;7.57;;;5.80;;
6785;SDS011;3430;51.192;6.048;2024-03-06T05:36:45;5.43;;;4.93;;
6785;SDS011;3430;51.192;6.048;2024-03-06T05:39:10;8.37;;;5.20;;
6785;SDS011;3430;51.192;6.048;2024-03-06T05:41:41;5.80;;;5.27;;
6785;SDS011;3430;51.192;6.048;2024-03-06T05:44:07;6.20;;;5.60;;
6785;SDS011;3430;51.192;6.048;2024-03-06T05:46:35;6.20;;;5.30;;
6785;SDS011;3430;51.192;6.048;2024-03-06T05:49:01;6.17;;;5.40;;
6785;SDS011;3430;51.192;6.048;2024-03-06T05:51:27;5.57;;;5.07;;
6785;SDS011;3430;51.192;6.048;2024-03-06T05:53:52;7.63;;;5.40;;
6785;SDS011;3430;51.192;6.048;2024-03-06T05:56:18;6.67;;;5.80;;
6785;SDS011;3430;51.192;6.048;2024-03-06T05:58:43;6.97;;;5.70;;
6785;SDS011;3430;51.192;6.048;2024-03-06T06:01:17;6.27;;;5.17;;
6785;SDS011;3430;51.192;6.048;2024-03-06T06:03:47;7.20;;;5.47;;
6785;SDS011;3430;51.192;6.048;2024-03-06T06:06:16;7.97;;;5.63;;
6785;SDS011;3430;51.192;6.048;2024-03-06T06:08:41;5.97;;;5.43;;
6785;SDS011;3430;51.192;6.048;2024-03-06T06:11:06;7.20;;;5.03;;
6785;SDS011;3430;51.192;6.048;2024-03-06T06:13:33;8.63;;;5.43;;
6785;SDS011;3430;51.192;6.048;2024-03-06T06:15:58;5.80;;;4.93;;
6785;SDS011;3430;51.192;6.048;2024-03-06T06:18:24;6.00;;;5.00;;
6785;SDS011;3430;51.192;6.048;2024-03-06T06:20:49;6.30;;;4.93;;
6785;SDS011;3430;51.192;6.048;2024-03-06T06:23:15;6.07;;;4.77;;
6785;SDS011;3430;51.192;6.048;2024-03-06T06:25:41;6.27;;;5.30;;
6785;SDS011;3430;51.192;6.048;2024-03-06T06:28:06;6.03;;;5.30;;
6785;SDS011;3430;51.192;6.048;2024-03-06T06:30:31;5.60;;;4.80;;
6785;SDS011;3430;51.192;6.048;2024-03-06T06:32:57;7.37;;;5.30;;
6785;SDS011;3430;51.192;6.048;2024-03-06T06:35:22;5.47;;;4.97;;
6785;SDS011;3430;51.192;6.048;2024-03-06T06:37:47;5.40;;;4.90;;
6785;SDS011;3430;51.192;6.048;2024-03-06T06:40:13;6.57;;;4.97;;
6785;SDS011;3430;51.192;6.048;2024-03-06T06:42:43;5.57;;;4.97;;
6785;SDS011;3430;51.192;6.048;2024-03-06T06:45:09;5.67;;;4.77;;
6785;SDS011;3430;51.192;6.048;2024-03-06T06:47:34;6.20;;;5.50;;
6785;SDS011;3430;51.192;6.048;2024-03-06T06:50:00;5.67;;;4.80;;
6785;SDS011;3430;51.192;6.048;2024-03-06T06:52:25;6.03;;;5.43;;
6785;SDS011;3430;51.192;6.048;2024-03-06T06:54:52;4.80;;;4.37;;
6785;SDS011;3430;51.192;6.048;2024-03-06T06:57:18;7.77;;;4.80;;
6785;SDS011;3430;51.192;6.048;2024-03-06T06:59:43;5.40;;;4.90;;
6785;SDS011;3430;51.192;6.048;2024-03-06T07:02:08;5.43;;;4.90;;
6785;SDS011;3430;51.192;6.048;2024-03-06T07:04:37;5.80;;;5.20;;
6785;SDS011;3430;51.192;6.048;2024-03-06T07:07:02;6.57;;;4.70;;
6785;SDS011;3430;51.192;6.048;2024-03-06T07:09:27;5.60;;;5.10;;
6785;SDS011;3430;51.192;6.048;2024-03-06T07:11:54;6.03;;;4.73;;
6785;SDS011;3430;51.192;6.048;2024-03-06T07:14:20;5.23;;;4.20;;
6785;SDS011;3430;51.192;6.048;2024-03-06T07:16:46;6.00;;;4.90;;
6785;SDS011;3430;51.192;6.048;2024-03-06T07:19:12;5.53;;;4.53;;
6785;SDS011;3430;51.192;6.048;2024-03-06T07:21:37;5.73;;;4.50;;
6785;SDS011;3430;51.192;6.048;2024-03-06T07:24:03;5.27;;;4.27;;
6785;SDS011;3430;51.192;6.048;2024-03-06T07:26:28;6.57;;;4.70;;
6785;SDS011;3430;51.192;6.048;2024-03-06T07:28:57;4.90;;;4.40;;
6785;SDS011;3430;51.192;6.048;2024-03-06T07:31:23;5.27;;;4.20;;
6785;SDS011;3430;51.192;6.048;2024-03-06T07:33:49;5.17;;;4.63;;
6785;SDS011;3430;51.192;6.048;2024-03-06T07:36:14;6.13;;;4.97;;
6785;SDS011;3430;51.192;6.048;2024-03-06T07:38:41;5.00;;;4.50;;
6785;SDS011;3430;51.192;6.048;2024-03-06T07:41:07;6.03;;;4.87;;
6785;SDS011;3430;51.192;6.048;2024-03-06T07:43:32;4.50;;;4.10;;
6785;SDS011;3430;51.192;6.048;2024-03-06T07:45:58;5.00;;;4.43;;
6785;SDS011;3430;51.192;6.048;2024-03-06T07:48:23;8.50;;;4.90;;
6785;SDS011;3430;51.192;6.048;2024-03-06T07:50:49;5.50;;;4.63;;
6785;SDS011;3430;51.192;6.048;2024-03-06T07:53:20;4.70;;;4.30;;
6785;SDS011;3430;51.192;6.048;2024-03-06T07:55:45;4.70;;;4.30;;
6785;SDS011;3430;51.192;6.048;2024-03-06T07:58:11;4.60;;;4.20;;
6785;SDS011;3430;51.192;6.048;2024-03-06T08:00:36;5.33;;;4.70;;
6785;SDS011;3430;51.192;6.048;2024-03-06T08:03:02;4.83;;;4.40;;
6785;SDS011;3430;51.192;6.048;2024-03-06T08:05:30;5.43;;;4.93;;
6785;SDS011;3430;51.192;6.048;2024-03-06T08:07:58;5.03;;;4.53;;
6785;SDS011;3430;51.192;6.048;2024-03-06T08:10:24;4.50;;;4.10;;
6785;SDS011;3430;51.192;6.048;2024-03-06T08:12:49;4.87;;;4.27;;
6785;SDS011;3430;51.192;6.048;2024-03-06T08:15:15;4.67;;;4.27;;
6785;SDS011;3430;51.192;6.048;2024-03-06T08:17:41;4.57;;;4.13;;
6785;SDS011;3430;51.192;6.048;2024-03-06T08:20:07;5.33;;;4.37;;
6785;SDS011;3430;51.192;6.048;2024-03-06T08:22:40;5.37;;;4.17;;
6785;SDS011;3430;51.192;6.048;2024-03-06T08:25:06;4.70;;;4.30;;
6785;SDS011;3430;51.192;6.048;2024-03-06T08:27:33;4.80;;;4.10;;
6785;SDS011;3430;51.192;6.048;2024-03-06T08:29:58;5.70;;;4.43;;
6785;SDS011;3430;51.192;6.048;2024-03-06T08:32:24;5.70;;;4.00;;
6785;SDS011;3430;51.192;6.048;2024-03-06T08:34:49;6.13;;;4.20;;
6785;SDS011;3430;51.192;6.048;2024-03-06T08:37:15;5.53;;;4.40;;
6785;SDS011;3430;51.192;6.048;2024-03-06T08:39:40;5.97;;;4.40;;
6785;SDS011;3430;51.192;6.048;2024-03-06T08:42:06;6.73;;;5.17;;
6785;SDS011;3430;51.192;6.048;2024-03-06T08:44:31;5.67;;;5.17;;
6785;SDS011;3430;51.192;6.048;2024-03-06T08:46:56;6.53;;;5.50;;
6785;SDS011;3430;51.192;6.048;2024-03-06T08:49:22;7.67;;;5.37;;
6785;SDS011;3430;51.192;6.048;2024-03-06T08:51:47;6.50;;;5.07;;
6785;SDS011;3430;51.192;6.048;2024-03-06T08:54:12;5.80;;;4.63;;
6785;SDS011;3430;51.192;6.048;2024-03-06T08:56:38;8.00;;;5.13;;
6785;SDS011;3430;51.192;6.048;2024-03-06T08:59:03;6.17;;;5.43;;
6785;SDS011;3430;51.192;6.048;2024-03-06T09:01:28;6.30;;;5.30;;
6785;SDS011;3430;51.192;6.048;2024-03-06T09:03:54;5.50;;;4.97;;
6785;SDS011;3430;51.192;6.048;2024-03-06T09:06:19;5.60;;;5.03;;
6785;SDS011;3430;51.192;6.048;2024-03-06T09:08:45;5.93;;;5.30;;
6785;SDS011;3430;51.192;6.048;2024-03-06T09:11:12;6.77;;;5.47;;
6785;SDS011;3430;51.192;6.048;2024-03-06T09:13:38;6.10;;;4.93;;
6785;SDS011;3430;51.192;6.048;2024-03-06T09:16:03;6.07;;;5.03;;
6785;SDS011;3430;51.192;6.048;2024-03-06T09:18:29;6.30;;;4.67;;
6785;SDS011;3430;51.192;6.048;2024-03-06T09:20:54;5.93;;;4.80;;
6785;SDS011;3430;51.192;6.048;2024-03-06T09:23:28;6.03;;;5.20;;
6785;SDS011;3430;51.192;6.048;2024-03-06T09:25:58;5.70;;;5.10;;
6785;SDS011;3430;51.192;6.048;2024-03-06T09:28:23;5.90;;;5.30;;
6785;SDS011;3430;51.192;6.048;2024-03-06T09:30:49;6.07;;;5.20;;
6785;SDS011;3430;51.192;6.048;2024-03-06T09:33:14;5.50;;;5.00;;
6785;SDS011;3430;51.192;6.048;2024-03-06T09:35:39;5.83;;;4.40;;
6785;SDS011;3430;51.192;6.048;2024-03-06T09:38:11;7.47;;;5.00;;
6785;SDS011;3430;51.192;6.048;2024-03-06T09:40:36;5.40;;;4.47;;
6785;SDS011;3430;51.192;6.048;2024-03-06T09:43:01;7.23;;;4.80;;
6785;SDS011;3430;51.192;6.048;2024-03-06T09:45:30;5.97;;;4.90;;
6785;SDS011;3430;51.192;6.048;2024-03-06T09:47:59;6.50;;;4.87;;
6785;SDS011;3430;51.192;6.048;2024-03-06T09:50:24;5.80;;;5.00;;
6785;SDS011;3430;51.192;6.048;2024-03-06T09:52:51;6.40;;;4.80;;
6785;SDS011;3430;51.192;6.048;2024-03-06T09:55:18;5.70;;;5.00;;
6785;SDS011;3430;51.192;6.048;2024-03-06T09:57:44;6.93;;;5.13;;
6785;SDS011;3430;51.192;6.048;2024-03-06T10:00:10;7.70;;;4.73;;
6785;SDS011;3430;51.192;6.048;2024-03-06T10:02:48;5.53;;;4.60;;
6785;SDS011;3430;51.192;6.048;2024-03-06T10:05:21;6.80;;;4.77;;
6785;SDS011;3430;51.192;6.048;2024-03-06T10:07:47;4.93;;;4.43;;
6785;SDS011;3430;51.192;6.048;2024-03-06T10:10:14;5.30;;;4.80;;
6785;SDS011;3430;51.192;6.048;2024-03-06T10:12:40;5.67;;;4.93;;
6785;SDS011;3430;51.192;6.048;2024-03-06T10:15:06;4.97;;;4.27;;
6785;SDS011;3430;51.192;6.048;2024-03-06T10:17:32;5.50;;;4.73;;
6785;SDS011;3430;51.192;6.048;2024-03-06T10:19:57;5.13;;;4.60;;
6785;SDS011;3430;51.192;6.048;2024-03-06T10:22:26;5.70;;;5.10;;
6785;SDS011;3430;51.192;6.048;2024-03-06T10:24:57;6.43;;;4.83;;
6785;SDS011;3430;51.192;6.048;2024-03-06T10:27:26;6.00;;;5.17;;
6785;SDS011;3430;51.192;6.048;2024-03-06T10:30:02;5.57;;;4.70;;
6785;SDS011;3430;51.192;6.048;2024-03-06T10:32:28;6.63;;;5.00;;
6785;SDS011;3430;51.192;6.048;2024-03-06T10:34:55;5.33;;;4.77;;
6785;SDS011;3430;51.192;6.048;2024-03-06T10:37:23;5.80;;;4.87;;
6785;SDS011;3430;51.192;6.048;2024-03-06T10:39:49;5.70;;;4.73;;
6785;SDS011;3430;51.192;6.048;2024-03-06T10:42:17;6.17;;;4.97;;
6785;SDS011;3430;51.192;6.048;2024-03-06T10:44:45;5.10;;;4.60;;
6785;SDS011;3430;51.192;6.048;2024-03-06T10:47:16;5.33;;;4.50;;
6785;SDS011;3430;51.192;6.048;2024-03-06T10:49:43;5.37;;;4.70;;
6785;SDS011;3430;51.192;6.048;2024-03-06T10:52:10;5.50;;;4.63;;
6785;SDS011;3430;51.192;6.048;2024-03-06T10:54:36;5.73;;;4.23;;
6785;SDS011;3430;51.192;6.048;2024-03-06T10:57:04;5.27;;;4.77;;
6785;SDS011;3430;51.192;6.048;2024-03-06T10:59:30;4.90;;;4.40;;
6785;SDS011;3430;51.192;6.048;2024-03-06T11:01:59;5.80;;;4.83;;
6785;SDS011;3430;51.192;6.048;2024-03-06T11:04:28;4.90;;;4.40;;
6785;SDS011;3430;51.192;6.048;2024-03-06T11:06:57;6.17;;;5.17;;
6785;SDS011;3430;51.192;6.048;2024-03-06T11:09:24;5.33;;;4.50;;
6785;SDS011;3430;51.192;6.048;2024-03-06T11:11:51;5.30;;;4.80;;
6785;SDS011;3430;51.192;6.048;2024-03-06T11:14:16;6.03;;;5.43;;
6785;SDS011;3430;51.192;6.048;2024-03-06T11:19:27;6.37;;;5.37;;
6785;SDS011;3430;51.192;6.048;2024-03-06T11:21:52;6.60;;;5.90;;
6785;SDS011;3430;51.192;6.048;2024-03-06T11:24:19;7.73;;;5.77;;
6785;SDS011;3430;51.192;6.048;2024-03-06T11:26:54;6.90;;;5.63;;
6785;SDS011;3430;51.192;6.048;2024-03-06T11:29:23;6.67;;;5.77;;
6785;SDS011;3430;51.192;6.048;2024-03-06T11:34:26;6.27;;;5.27;;
6785;SDS011;3430;51.192;6.048;2024-03-06T11:37:10;5.57;;;4.97;;
6785;SDS011;3430;51.192;6.048;2024-03-06T11:39:36;6.30;;;5.70;;
6785;SDS011;3430;51.192;6.048;2024-03-06T11:42:01;6.83;;;5.40;;
6785;SDS011;3430;51.192;6.048;2024-03-06T11:44:27;7.13;;;5.23;;
6785;SDS011;3430;51.192;6.048;2024-03-06T11:51:50;7.47;;;5.50;;
6785;SDS011;3430;51.192;6.048;2024-03-06T11:54:16;5.23;;;4.60;;
6785;SDS011;3430;51.192;6.048;2024-03-06T11:56:57;4.90;;;4.50;;
6785;SDS011;3430;51.192;6.048;2024-03-06T11:59:27;6.57;;;4.73;;
6785;SDS011;3430;51.192;6.048;2024-03-06T12:01:53;7.00;;;4.93;;
6785;SDS011;3430;51.192;6.048;2024-03-06T12:04:19;6.33;;;4.63;;
6785;SDS011;3430;51.192;6.048;2024-03-06T12:06:44;5.63;;;5.03;;
6785;SDS011;3430;51.192;6.048;2024-03-06T12:09:09;5.20;;;4.40;;
6785;SDS011;3430;51.192;6.048;2024-03-06T12:11:36;6.37;;;5.20;;
6785;SDS011;3430;51.192;6.048;2024-03-06T12:14:02;6.33;;;5.07;;
6785;SDS011;3430;51.192;6.048;2024-03-06T12:16:30;5.53;;;4.93;;
6785;SDS011;3430;51.192;6.048;2024-03-06T12:18:59;5.73;;;4.90;;
6785;SDS011;3430;51.192;6.048;2024-03-06T12:21:31;6.70;;;5.23;;
6785;SDS011;3430;51.192;6.048;2024-03-06T12:24:06;5.27;;;4.77;;
6785;SDS011;3430;51.192;6.048;2024-03-06T12:26:32;5.27;;;4.77;;
6785;SDS011;3430;51.192;6.048;2024-03-06T12:29:04;5.73;;;4.70;;
6785;SDS011;3430;51.192;6.048;2024-03-06T12:31:31;5.67;;;5.10;;
6785;SDS011;3430;51.192;6.048;2024-03-06T12:33:56;5.57;;;4.93;;
6785;SDS011;3430;51.192;6.048;2024-03-06T12:36:24;5.27;;;4.43;;
6785;SDS011;3430;51.192;6.048;2024-03-06T12:38:58;5.23;;;4.73;;
6785;SDS011;3430;51.192;6.048;2024-03-06T12:41:24;5.17;;;4.40;;
6785;SDS011;3430;51.192;6.048;2024-03-06T12:43:53;7.03;;;5.03;;
6785;SDS011;3430;51.192;6.048;2024-03-06T12:46:19;5.13;;;4.33;;
6785;SDS011;3430;51.192;6.048;2024-03-06T12:48:47;4.97;;;4.47;;
6785;SDS011;3430;51.192;6.048;2024-03-06T12:51:13;5.13;;;4.50;;
6785;SDS011;3430;51.192;6.048;2024-03-06T12:53:38;5.97;;;4.50;;
6785;SDS011;3430;51.192;6.048;2024-03-06T12:56:05;5.47;;;4.87;;
6785;SDS011;3430;51.192;6.048;2024-03-06T12:58:30;4.90;;;4.27;;
6785;SDS011;3430;51.192;6.048;2024-03-06T13:01:02;5.60;;;4.97;;
6785;SDS011;3430;51.192;6.048;2024-03-06T13:03:27;7.30;;;4.80;;
6785;SDS011;3430;51.192;6.048;2024-03-06T13:05:53;5.93;;;4.30;;
6785;SDS011;3430;51.192;6.048;2024-03-06T13:08:18;7.27;;;4.87;;
6785;SDS011;3430;51.192;6.048;2024-03-06T13:10:44;6.00;;;4.87;;
6785;SDS011;3430;51.192;6.048;2024-03-06T13:13:10;5.93;;;4.77;;
6785;SDS011;3430;51.192;6.048;2024-03-06T13:15:35;5.03;;;4.30;;
6785;SDS011;3430;51.192;6.048;2024-03-06T13:18:02;5.33;;;4.80;;
6785;SDS011;3430;51.192;6.048;2024-03-06T13:20:31;5.30;;;4.57;;
6785;SDS011;3430;51.192;6.048;2024-03-06T13:22:57;5.47;;;4.20;;
6785;SDS011;3430;51.192;6.048;2024-03-06T13:25:22;4.93;;;4.10;;
6785;SDS011;3430;51.192;6.048;2024-03-06T13:27:48;4.60;;;4.00;;
6785;SDS011;3430;51.192;6.048;2024-03-06T13:30:14;5.23;;;4.73;;
6785;SDS011;3430;51.192;6.048;2024-03-06T13:32:40;5.03;;;4.53;;
6785;SDS011;3430;51.192;6.048;2024-03-06T13:35:06;6.40;;;5.10;;
6785;SDS011;3430;51.192;6.048;2024-03-06T13:37:31;5.40;;;4.90;;
6785;SDS011;3430;51.192;6.048;2024-03-06T13:39:57;5.00;;;4.50;;
6785;SDS011;3430;51.192;6.048;2024-03-06T13:42:26;7.30;;;4.63;;
6785;SDS011;3430;51.192;6.048;2024-03-06T13:44:51;5.50;;;4.43;;
6785;SDS011;3430;51.192;6.048;2024-03-06T13:47:17;6.53;;;4.77;;
6785;SDS011;3430;51.192;6.048;2024-03-06T13:49:42;5.27;;;4.60;;
6785;SDS011;3430;51.192;6.048;2024-03-06T13:52:08;4.80;;;4.30;;
6785;SDS011;3430;51.192;6.048;2024-03-06T13:54:42;5.13;;;4.43;;
6785;SDS011;3430;51.192;6.048;2024-03-06T13:57:13;6.33;;;4.80;;
6785;SDS011;3430;51.192;6.048;2024-03-06T13:59:39;5.07;;;4.57;;
6785;SDS011;3430;51.192;6.048;2024-03-06T14:02:05;5.33;;;4.30;;
6785;SDS011;3430;51.192;6.048;2024-03-06T14:04:31;4.90;;;4.40;;
6785;SDS011;3430;51.192;6.048;2024-03-06T14:06:57;4.93;;;4.17;;
6785;SDS011;3430;51.192;6.048;2024-03-06T14:09:23;4.73;;;4.20;;
6785;SDS011;3430;51.192;6.048;2024-03-06T14:11:50;7.13;;;4.37;;
6785;SDS011;3430;51.192;6.048;2024-03-06T14:14:16;6.73;;;4.63;;
6785;SDS011;3430;51.192;6.048;2024-03-06T14:16:41;4.97;;;4.33;;
6785;SDS011;3430;51.192;6.048;2024-03-06T14:19:07;4.97;;;4.20;;
6785;SDS011;3430;51.192;6.048;2024-03-06T14:21:33;5.83;;;4.47;;
6785;SDS011;3430;51.192;6.048;2024-03-06T14:23:59;4.37;;;3.97;;
6785;SDS011;3430;51.192;6.048;2024-03-06T14:26:24;5.53;;;4.77;;
6785;SDS011;3430;51.192;6.048;2024-03-06T14:28:50;5.57;;;4.83;;
6785;SDS011;3430;51.192;6.048;2024-03-06T14:31:15;4.97;;;4.10;;
6785;SDS011;3430;51.192;6.048;2024-03-06T14:33:41;4.50;;;4.10;;
6785;SDS011;3430;51.192;6.048;2024-03-06T14:36:07;5.67;;;4.00;;
6785;SDS011;3430;51.192;6.048;2024-03-06T14:38:32;4.73;;;4.33;;
6785;SDS011;3430;51.192;6.048;2024-03-06T14:40:58;4.87;;;4.33;;
6785;SDS011;3430;51.192;6.048;2024-03-06T14:43:23;5.80;;;4.00;;
6785;SDS011;3430;51.192;6.048;2024-03-06T14:45:48;5.03;;;4.20;;
6785;SDS011;3430;51.192;6.048;2024-03-06T14:48:17;4.93;;;4.40;;
6785;SDS011;3430;51.192;6.048;2024-03-06T14:50:42;6.23;;;5.10;;
6785;SDS011;3430;51.192;6.048;2024-03-06T14:53:08;5.23;;;4.37;;
6785;SDS011;3430;51.192;6.048;2024-03-06T14:55:33;4.37;;;3.90;;
6785;SDS011;3430;51.192;6.048;2024-03-06T14:57:59;5.17;;;4.40;;
6785;SDS011;3430;51.192;6.048;2024-03-06T15:00:24;5.90;;;4.47;;
6785;SDS011;3430;51.192;6.048;2024-03-06T15:02:49;4.50;;;3.87;;
6785;SDS011;3430;51.192;6.048;2024-03-06T15:05:15;5.20;;;4.50;;
6785;SDS011;3430;51.192;6.048;2024-03-06T15:07:40;4.57;;;4.17;;
6785;SDS011;3430;51.192;6.048;2024-03-06T15:10:06;5.50;;;3.83;;
6785;SDS011;3430;51.192;6.048;2024-03-06T15:12:31;5.87;;;4.10;;
6785;SDS011;3430;51.192;6.048;2024-03-06T15:14:57;5.10;;;4.27;;
6785;SDS011;3430;51.192;6.048;2024-03-06T15:17:23;4.80;;;4.10;;
6785;SDS011;3430;51.192;6.048;2024-03-06T15:19:53;5.77;;;4.53;;